Toward — MTTR3 — position and weather

sailwx.info

Track history (hours):
 
Tides and Currents Weather Stations Pressure Air Temp Water Temp Dewpoint Dewpoint Depression Visibility Wind Speed Wind Dir Waves Ship Positions

Toward

Last reported at 2015-Mar-29 16:32 UTC. Time now 2015-Mar-29 17:24 UTC.
Position N 55°57' W 004°46'.

Length 14 m.

Type: Pilot. MMSI: 232003652.

Date/timePositionNaut miles runAvg speedWind from/ knotsBaromVisibWave heightAir tempDewpointWater temp
2015-Mar-29 16:32N 55°57' W 004°46'0 0.0
2015-Mar-29 15:23N 55°57' W 004°46'0 0.0
2015-Mar-29 14:29N 55°57' W 004°46'0 0.0
2015-Mar-29 13:26N 55°57' W 004°46'0 0.0
2015-Mar-29 12:32N 55°57' W 004°46'0 0.0
2015-Mar-29 11:32N 55°57' W 004°46'0 0.0
2015-Mar-29 10:32N 55°57' W 004°46'0 0.0
2015-Mar-29 09:32N 55°57' W 004°46'0 0.0
2015-Mar-29 08:32N 55°57' W 004°46'0 0.0
2015-Mar-29 07:29N 55°57' W 004°46'0 0.0
2015-Mar-29 06:32N 55°57' W 004°46'0 0.0
2015-Mar-28 21:20N 55°57' W 004°46'0 0.0
2015-Mar-28 20:29N 55°57' W 004°46'0 0.0
2015-Mar-28 19:29N 55°57' W 004°46'6 6.4
2015-Mar-28 18:33N 55°59' W 004°56'6 5.3
2015-Mar-28 17:24N 55°57' W 004°46'0 0.0
2015-Mar-28 16:31N 55°57' W 004°46'0 0.0
2015-Mar-28 15:31N 55°57' W 004°46'0 0.0
2015-Mar-28 14:31N 55°57' W 004°46'0 0.0
2015-Mar-28 13:31N 55°57' W 004°46'0 0.0
2015-Mar-28 12:28N 55°57' W 004°46'0 0.0
2015-Mar-28 11:31N 55°57' W 004°46'0 0.0
2015-Mar-28 10:31N 55°57' W 004°46'0 0.0
2015-Mar-28 09:31N 55°57' W 004°46'0 0.0
2015-Mar-28 08:31N 55°57' W 004°46'0 0.0
2015-Mar-27 21:31N 55°57' W 004°46'0 0.0
2015-Mar-27 20:28N 55°57' W 004°46'0 0.0
2015-Mar-27 19:28N 55°57' W 004°46'0 0.0
2015-Mar-27 18:28N 55°57' W 004°46'0 0.0
2015-Mar-27 17:31N 55°57' W 004°46'0 0.0
2015-Mar-27 16:31N 55°57' W 004°46'0 0.0
2015-Mar-27 15:31N 55°57' W 004°46'2 1.0
2015-Mar-27 13:33N 55°59' W 004°49'2 1.8
2015-Mar-27 12:28N 55°57' W 004°46'0 0.0
2015-Mar-27 11:31N 55°57' W 004°46'0 0.0
2015-Mar-27 10:31N 55°57' W 004°46'0 0.0
2015-Mar-27 09:28N 55°57' W 004°46'0 0.0
2015-Mar-27 08:31N 55°57' W 004°46'2 1.8
2015-Mar-27 07:33N 55°59' W 004°45'2 0.6
2015-Mar-27 04:32N 55°57' W 004°46'0 0.0
2015-Mar-26 22:31N 55°57' W 004°46'0 0.0
2015-Mar-26 21:25N 55°57' W 004°46'0 0.0
2015-Mar-26 20:28N 55°57' W 004°46'0 0.0
2015-Mar-26 19:31N 55°57' W 004°46'0 0.0
2015-Mar-26 18:31N 55°57' W 004°46'0 0.0
2015-Mar-26 17:31N 55°57' W 004°46'0 0.0
2015-Mar-26 16:28N 55°57' W 004°46'0 0.0
2015-Mar-26 15:29N 55°57' W 004°46'0 0.0
2015-Mar-26 14:32N 55°57' W 004°46'0 0.0
2015-Mar-26 13:32N 55°57' W 004°46'0 0.0
2015-Mar-26 12:32N 55°57' W 004°46'0 0.0
2015-Mar-26 11:32N 55°57' W 004°46'0 0.0
2015-Mar-26 10:32N 55°57' W 004°46'0 0.0
2015-Mar-26 09:32N 55°57' W 004°46'0 0.0
2015-Mar-26 08:29N 55°57' W 004°46'0 0.0
2015-Mar-26 07:32N 55°57' W 004°46'0 0.0
2015-Mar-26 06:32N 55°57' W 004°46'5 0.5
2015-Mar-25 21:33N 55°59' W 004°54'1 1.5
2015-Mar-25 20:33N 55°59' W 004°57'6 6.3
2015-Mar-25 19:33N 55°57' W 004°46'0 0.0
2015-Mar-25 18:31N 55°57' W 004°46'0 0.0
2015-Mar-25 17:31N 55°57' W 004°46'0 0.0
2015-Mar-25 16:31N 55°57' W 004°46'0 0.0
2015-Mar-25 15:28N 55°57' W 004°46'0 0.0
2015-Mar-25 14:31N 55°57' W 004°46'0 0.0
2015-Mar-25 13:31N 55°57' W 004°46'0 0.0
2015-Mar-25 12:31N 55°57' W 004°46'0 0.0
2015-Mar-25 11:31N 55°57' W 004°46'0 0.0
2015-Mar-25 10:31N 55°57' W 004°46'0 0.0
2015-Mar-25 09:31N 55°57' W 004°46'0 0.0
2015-Mar-25 08:31N 55°57' W 004°46'1 1.0
2015-Mar-25 07:33N 55°58' W 004°47'4 4.1
2015-Mar-25 06:33N 55°56' W 004°54'5 4.7
2015-Mar-25 05:33N 55°57' W 004°46'0 0.0
2015-Mar-25 04:33N 55°57' W 004°46'1 0.2
2015-Mar-24 23:33N 55°58' W 004°48'1 1.0
2015-Mar-24 22:31N 55°57' W 004°46'0 0.0
2015-Mar-24 21:28N 55°57' W 004°46'0 0.0
2015-Mar-24 20:34N 55°57' W 004°46'0 0.0
2015-Mar-24 19:31N 55°57' W 004°46'0 0.0
2015-Mar-24 18:31N 55°57' W 004°46'0 0.0
2015-Mar-24 17:28N 55°57' W 004°46'0 0.0
2015-Mar-24 16:28N 55°57' W 004°46'0 0.0
2015-Mar-24 15:29N 55°57' W 004°46'0 0.0
2015-Mar-24 14:31N 55°57' W 004°46'0 0.0
2015-Mar-24 13:31N 55°57' W 004°46'0 0.0
2015-Mar-24 12:31N 55°57' W 004°46'0 0.0
2015-Mar-24 11:28N 55°57' W 004°46'0 0.0
2015-Mar-24 10:31N 55°57' W 004°46'0 0.0
2015-Mar-24 09:28N 55°57' W 004°46'0 0.0
2015-Mar-24 08:27N 55°57' W 004°46'0 0.0
2015-Mar-24 07:30N 55°57' W 004°46'0 0.0
2015-Mar-24 06:33N 55°57' W 004°46'0 0.0
2015-Mar-23 22:32N 55°57' W 004°46'0 0.0
2015-Mar-23 21:32N 55°57' W 004°46'0 0.1
2015-Mar-23 20:33N 55°58' W 004°46'0 0.1
2015-Mar-23 19:32N 55°57' W 004°46'0 0.0
2015-Mar-23 18:32N 55°57' W 004°46'0 0.0
2015-Mar-23 17:32N 55°57' W 004°46'0 0.0
2015-Mar-23 16:32N 55°57' W 004°46'0 0.0
2015-Mar-23 15:31N 55°57' W 004°46'0 0.0
2015-Mar-23 14:25N 55°57' W 004°46'0 0.0
2015-Mar-23 13:25N 55°57' W 004°46'0 0.0
2015-Mar-23 12:33N 55°57' W 004°46'0 0.0
2015-Mar-23 11:33N 55°57' W 004°46'0 0.0
2015-Mar-23 10:33N 55°57' W 004°46'0 0.0
2015-Mar-23 09:33N 55°57' W 004°46'0 0.0
2015-Mar-23 08:33N 55°57' W 004°46'0 0.0
2015-Mar-23 07:33N 55°57' W 004°46'0 0.0
2015-Mar-23 06:30N 55°57' W 004°46'0 0.0
2015-Mar-23 05:33N 55°57' W 004°46'0 0.0
2015-Mar-22 21:33N 55°57' W 004°46'0 0.0
2015-Mar-22 20:33N 55°57' W 004°46'0 0.0
2015-Mar-22 19:33N 55°57' W 004°46'0 0.0
2015-Mar-22 18:30N 55°57' W 004°46'0 0.0
2015-Mar-22 17:26N 55°57' W 004°46'0 0.0
2015-Mar-22 16:31N 55°57' W 004°46'0 0.0
2015-Mar-22 15:28N 55°57' W 004°46'0 0.0
2015-Mar-22 14:31N 55°57' W 004°46'0 0.0
2015-Mar-22 13:31N 55°57' W 004°46'0 0.0
2015-Mar-22 12:32N 55°57' W 004°46'0 0.0
2015-Mar-22 11:26N 55°57' W 004°46'0 0.0
2015-Mar-22 10:32N 55°57' W 004°46'0 0.0
2015-Mar-22 09:32N 55°57' W 004°46'0 0.0
2015-Mar-22 08:26N 55°57' W 004°46'0 0.0
2015-Mar-22 07:29N 55°57' W 004°46'0 0.0
2015-Mar-22 06:29N 55°57' W 004°46'0 0.0
2015-Mar-22 05:29N 55°57' W 004°46'0 0.0
2015-Mar-22 04:32N 55°57' W 004°46'0 0.0
2015-Mar-21 23:29N 55°57' W 004°46'0 0.0
2015-Mar-21 22:29N 55°57' W 004°46'0 0.0
2015-Mar-21 21:32N 55°57' W 004°46'0 0.0
2015-Mar-21 20:32N 55°57' W 004°46'0 0.0
2015-Mar-21 19:32N 55°57' W 004°46'0 0.0
2015-Mar-21 18:32N 55°57' W 004°46'0 0.0
2015-Mar-21 17:32N 55°57' W 004°46'0 0.0
2015-Mar-21 16:32N 55°57' W 004°46'0 0.0
2015-Mar-21 15:32N 55°57' W 004°46'0 0.0
2015-Mar-21 14:29N 55°57' W 004°46'0 0.0
2015-Mar-21 13:29N 55°57' W 004°46'0 0.0
2015-Mar-21 12:32N 55°57' W 004°46'0 0.0
2015-Mar-21 11:32N 55°57' W 004°46'0 0.0
2015-Mar-21 10:26N 55°57' W 004°46'0 0.0
2015-Mar-21 09:29N 55°57' W 004°46'0 0.0
2015-Mar-21 08:26N 55°57' W 004°46'0 0.0
2015-Mar-21 04:29N 55°57' W 004°46'0 0.0
2015-Mar-20 22:08N 55°57' W 004°46'0 0.0
2015-Mar-20 21:32N 55°57' W 004°46'0 0.0
2015-Mar-20 20:32N 55°57' W 004°46'0 0.0
2015-Mar-20 19:32N 55°57' W 004°46'0 0.0
2015-Mar-20 18:32N 55°57' W 004°46'0 0.0
2015-Mar-20 17:32N 55°57' W 004°46'0 0.0
2015-Mar-20 16:32N 55°57' W 004°46'0 0.0
2015-Mar-20 15:29N 55°57' W 004°46'0 0.0
2015-Mar-20 14:32N 55°57' W 004°46'0 0.0
2015-Mar-20 13:32N 55°57' W 004°46'0 0.0
2015-Mar-20 12:32N 55°57' W 004°46'0 0.0
2015-Mar-20 11:32N 55°57' W 004°46'0 0.0
2015-Mar-20 10:32N 55°57' W 004°46'0 0.0
2015-Mar-20 09:32N 55°57' W 004°46'0 0.0
2015-Mar-20 08:32N 55°57' W 004°46'0 0.0
2015-Mar-20 07:26N 55°57' W 004°46'0 0.0
2015-Mar-20 06:32N 55°57' W 004°46'0 0.0
2015-Mar-20 05:32N 55°57' W 004°46'0 0.0
2015-Mar-19 22:32N 55°57' W 004°46'0 0.0
2015-Mar-19 21:32N 55°57' W 004°46'0 0.0
2015-Mar-19 20:32N 55°57' W 004°46'0 0.0
2015-Mar-19 19:32N 55°57' W 004°46'0 0.0
2015-Mar-19 18:32N 55°57' W 004°46'0 0.0
2015-Mar-19 17:32N 55°57' W 004°46'0 0.0
2015-Mar-19 16:32N 55°57' W 004°46'  
Track history (hours):
 
Tides and Currents Weather Stations Pressure Air Temp Water Temp Dewpoint Dewpoint Depression Visibility Wind Speed Wind Dir Waves Ship Positions

Toward

Last reported at 2015-Mar-29 16:32 UTC. Time now 2015-Mar-29 17:24 UTC.
Position N 55°57' W 004°46'.

Length 14 m.

Type: Pilot. MMSI: 232003652.

Date/timePositionNaut miles runAvg speedWind from/ knotsBaromVisibWave heightAir tempDewpointWater temp
2015-Mar-29 16:32N 55°57' W 004°46'0 0.0
2015-Mar-29 15:23N 55°57' W 004°46'0 0.0
2015-Mar-29 14:29N 55°57' W 004°46'0 0.0
2015-Mar-29 13:26N 55°57' W 004°46'0 0.0
2015-Mar-29 12:32N 55°57' W 004°46'0 0.0
2015-Mar-29 11:32N 55°57' W 004°46'0 0.0
2015-Mar-29 10:32N 55°57' W 004°46'0 0.0
2015-Mar-29 09:32N 55°57' W 004°46'0 0.0
2015-Mar-29 08:32N 55°57' W 004°46'0 0.0
2015-Mar-29 07:29N 55°57' W 004°46'0 0.0
2015-Mar-29 06:32N 55°57' W 004°46'0 0.0
2015-Mar-28 21:20N 55°57' W 004°46'0 0.0
2015-Mar-28 20:29N 55°57' W 004°46'0 0.0
2015-Mar-28 19:29N 55°57' W 004°46'6 6.4
2015-Mar-28 18:33N 55°59' W 004°56'6 5.3
2015-Mar-28 17:24N 55°57' W 004°46'0 0.0
2015-Mar-28 16:31N 55°57' W 004°46'0 0.0
2015-Mar-28 15:31N 55°57' W 004°46'0 0.0
2015-Mar-28 14:31N 55°57' W 004°46'0 0.0
2015-Mar-28 13:31N 55°57' W 004°46'0 0.0
2015-Mar-28 12:28N 55°57' W 004°46'0 0.0
2015-Mar-28 11:31N 55°57' W 004°46'0 0.0
2015-Mar-28 10:31N 55°57' W 004°46'0 0.0
2015-Mar-28 09:31N 55°57' W 004°46'0 0.0
2015-Mar-28 08:31N 55°57' W 004°46'0 0.0
2015-Mar-27 21:31N 55°57' W 004°46'0 0.0
2015-Mar-27 20:28N 55°57' W 004°46'0 0.0
2015-Mar-27 19:28N 55°57' W 004°46'0 0.0
2015-Mar-27 18:28N 55°57' W 004°46'0 0.0
2015-Mar-27 17:31N 55°57' W 004°46'0 0.0
2015-Mar-27 16:31N 55°57' W 004°46'0 0.0
2015-Mar-27 15:31N 55°57' W 004°46'2 1.0
2015-Mar-27 13:33N 55°59' W 004°49'2 1.8
2015-Mar-27 12:28N 55°57' W 004°46'0 0.0
2015-Mar-27 11:31N 55°57' W 004°46'0 0.0
2015-Mar-27 10:31N 55°57' W 004°46'0 0.0
2015-Mar-27 09:28N 55°57' W 004°46'0 0.0
2015-Mar-27 08:31N 55°57' W 004°46'2 1.8
2015-Mar-27 07:33N 55°59' W 004°45'2 0.6
2015-Mar-27 04:32N 55°57' W 004°46'0 0.0
2015-Mar-26 22:31N 55°57' W 004°46'0 0.0
2015-Mar-26 21:25N 55°57' W 004°46'0 0.0
2015-Mar-26 20:28N 55°57' W 004°46'0 0.0
2015-Mar-26 19:31N 55°57' W 004°46'0 0.0
2015-Mar-26 18:31N 55°57' W 004°46'0 0.0
2015-Mar-26 17:31N 55°57' W 004°46'0 0.0
2015-Mar-26 16:28N 55°57' W 004°46'0 0.0
2015-Mar-26 15:29N 55°57' W 004°46'0 0.0
2015-Mar-26 14:32N 55°57' W 004°46'0 0.0
2015-Mar-26 13:32N 55°57' W 004°46'0 0.0
2015-Mar-26 12:32N 55°57' W 004°46'0 0.0
2015-Mar-26 11:32N 55°57' W 004°46'0 0.0
2015-Mar-26 10:32N 55°57' W 004°46'0 0.0
2015-Mar-26 09:32N 55°57' W 004°46'0 0.0
2015-Mar-26 08:29N 55°57' W 004°46'0 0.0
2015-Mar-26 07:32N 55°57' W 004°46'0 0.0
2015-Mar-26 06:32N 55°57' W 004°46'5 0.5
2015-Mar-25 21:33N 55°59' W 004°54'1 1.5
2015-Mar-25 20:33N 55°59' W 004°57'6 6.3
2015-Mar-25 19:33N 55°57' W 004°46'0 0.0
2015-Mar-25 18:31N 55°57' W 004°46'0 0.0
2015-Mar-25 17:31N 55°57' W 004°46'0 0.0
2015-Mar-25 16:31N 55°57' W 004°46'0 0.0
2015-Mar-25 15:28N 55°57' W 004°46'0 0.0
2015-Mar-25 14:31N 55°57' W 004°46'0 0.0
2015-Mar-25 13:31N 55°57' W 004°46'0 0.0
2015-Mar-25 12:31N 55°57' W 004°46'0 0.0
2015-Mar-25 11:31N 55°57' W 004°46'0 0.0
2015-Mar-25 10:31N 55°57' W 004°46'0 0.0
2015-Mar-25 09:31N 55°57' W 004°46'0 0.0
2015-Mar-25 08:31N 55°57' W 004°46'1 1.0
2015-Mar-25 07:33N 55°58' W 004°47'4 4.1
2015-Mar-25 06:33N 55°56' W 004°54'5 4.7
2015-Mar-25 05:33N 55°57' W 004°46'0 0.0
2015-Mar-25 04:33N 55°57' W 004°46'1 0.2
2015-Mar-24 23:33N 55°58' W 004°48'1 1.0
2015-Mar-24 22:31N 55°57' W 004°46'0 0.0
2015-Mar-24 21:28N 55°57' W 004°46'0 0.0
2015-Mar-24 20:34N 55°57' W 004°46'0 0.0
2015-Mar-24 19:31N 55°57' W 004°46'0 0.0
2015-Mar-24 18:31N 55°57' W 004°46'0 0.0
2015-Mar-24 17:28N 55°57' W 004°46'0 0.0
2015-Mar-24 16:28N 55°57' W 004°46'0 0.0
2015-Mar-24 15:29N 55°57' W 004°46'0 0.0
2015-Mar-24 14:31N 55°57' W 004°46'0 0.0
2015-Mar-24 13:31N 55°57' W 004°46'0 0.0
2015-Mar-24 12:31N 55°57' W 004°46'0 0.0
2015-Mar-24 11:28N 55°57' W 004°46'0 0.0
2015-Mar-24 10:31N 55°57' W 004°46'0 0.0
2015-Mar-24 09:28N 55°57' W 004°46'0 0.0
2015-Mar-24 08:27N 55°57' W 004°46'0 0.0
2015-Mar-24 07:30N 55°57' W 004°46'0 0.0
2015-Mar-24 06:33N 55°57' W 004°46'0 0.0
2015-Mar-23 22:32N 55°57' W 004°46'0 0.0
2015-Mar-23 21:32N 55°57' W 004°46'0 0.1
2015-Mar-23 20:33N 55°58' W 004°46'0 0.1
2015-Mar-23 19:32N 55°57' W 004°46'0 0.0
2015-Mar-23 18:32N 55°57' W 004°46'0 0.0
2015-Mar-23 17:32N 55°57' W 004°46'0 0.0
2015-Mar-23 16:32N 55°57' W 004°46'0 0.0
2015-Mar-23 15:31N 55°57' W 004°46'0 0.0
2015-Mar-23 14:25N 55°57' W 004°46'0 0.0
2015-Mar-23 13:25N 55°57' W 004°46'0 0.0
2015-Mar-23 12:33N 55°57' W 004°46'0 0.0
2015-Mar-23 11:33N 55°57' W 004°46'0 0.0
2015-Mar-23 10:33N 55°57' W 004°46'0 0.0
2015-Mar-23 09:33N 55°57' W 004°46'0 0.0
2015-Mar-23 08:33N 55°57' W 004°46'0 0.0
2015-Mar-23 07:33N 55°57' W 004°46'0 0.0
2015-Mar-23 06:30N 55°57' W 004°46'0 0.0
2015-Mar-23 05:33N 55°57' W 004°46'0 0.0
2015-Mar-22 21:33N 55°57' W 004°46'0 0.0
2015-Mar-22 20:33N 55°57' W 004°46'0 0.0
2015-Mar-22 19:33N 55°57' W 004°46'0 0.0
2015-Mar-22 18:30N 55°57' W 004°46'0 0.0
2015-Mar-22 17:26N 55°57' W 004°46'0 0.0
2015-Mar-22 16:31N 55°57' W 004°46'0 0.0
2015-Mar-22 15:28N 55°57' W 004°46'0 0.0
2015-Mar-22 14:31N 55°57' W 004°46'0 0.0
2015-Mar-22 13:31N 55°57' W 004°46'0 0.0
2015-Mar-22 12:32N 55°57' W 004°46'0 0.0
2015-Mar-22 11:26N 55°57' W 004°46'0 0.0
2015-Mar-22 10:32N 55°57' W 004°46'0 0.0
2015-Mar-22 09:32N 55°57' W 004°46'0 0.0
2015-Mar-22 08:26N 55°57' W 004°46'0 0.0
2015-Mar-22 07:29N 55°57' W 004°46'0 0.0
2015-Mar-22 06:29N 55°57' W 004°46'0 0.0
2015-Mar-22 05:29N 55°57' W 004°46'0 0.0
2015-Mar-22 04:32N 55°57' W 004°46'0 0.0
2015-Mar-21 23:29N 55°57' W 004°46'0 0.0
2015-Mar-21 22:29N 55°57' W 004°46'0 0.0
2015-Mar-21 21:32N 55°57' W 004°46'0 0.0
2015-Mar-21 20:32N 55°57' W 004°46'0 0.0
2015-Mar-21 19:32N 55°57' W 004°46'0 0.0
2015-Mar-21 18:32N 55°57' W 004°46'0 0.0
2015-Mar-21 17:32N 55°57' W 004°46'0 0.0
2015-Mar-21 16:32N 55°57' W 004°46'0 0.0
2015-Mar-21 15:32N 55°57' W 004°46'0 0.0
2015-Mar-21 14:29N 55°57' W 004°46'0 0.0
2015-Mar-21 13:29N 55°57' W 004°46'0 0.0
2015-Mar-21 12:32N 55°57' W 004°46'0 0.0
2015-Mar-21 11:32N 55°57' W 004°46'0 0.0
2015-Mar-21 10:26N 55°57' W 004°46'0 0.0
2015-Mar-21 09:29N 55°57' W 004°46'0 0.0
2015-Mar-21 08:26N 55°57' W 004°46'0 0.0
2015-Mar-21 04:29N 55°57' W 004°46'0 0.0
2015-Mar-20 22:08N 55°57' W 004°46'0 0.0
2015-Mar-20 21:32N 55°57' W 004°46'0 0.0
2015-Mar-20 20:32N 55°57' W 004°46'0 0.0
2015-Mar-20 19:32N 55°57' W 004°46'0 0.0
2015-Mar-20 18:32N 55°57' W 004°46'0 0.0
2015-Mar-20 17:32N 55°57' W 004°46'0 0.0
2015-Mar-20 16:32N 55°57' W 004°46'0 0.0
2015-Mar-20 15:29N 55°57' W 004°46'0 0.0
2015-Mar-20 14:32N 55°57' W 004°46'0 0.0
2015-Mar-20 13:32N 55°57' W 004°46'0 0.0
2015-Mar-20 12:32N 55°57' W 004°46'0 0.0
2015-Mar-20 11:32N 55°57' W 004°46'0 0.0
2015-Mar-20 10:32N 55°57' W 004°46'0 0.0
2015-Mar-20 09:32N 55°57' W 004°46'0 0.0
2015-Mar-20 08:32N 55°57' W 004°46'0 0.0
2015-Mar-20 07:26N 55°57' W 004°46'0 0.0
2015-Mar-20 06:32N 55°57' W 004°46'0 0.0
2015-Mar-20 05:32N 55°57' W 004°46'0 0.0
2015-Mar-19 22:32N 55°57' W 004°46'0 0.0
2015-Mar-19 21:32N 55°57' W 004°46'0 0.0
2015-Mar-19 20:32N 55°57' W 004°46'0 0.0
2015-Mar-19 19:32N 55°57' W 004°46'0 0.0
2015-Mar-19 18:32N 55°57' W 004°46'0 0.0
2015-Mar-19 17:32N 55°57' W 004°46'0 0.0
2015-Mar-19 16:32N 55°57' W 004°46'  

Dump ship's entire track history